sensor_id;sensor_type;location;lat;lon;timestamp;temperature;humidity
26745;DHT22;14342;50.960;13.880;2024-02-14T00:00:22;4.80;99.90
26745;DHT22;14342;50.960;13.880;2024-02-14T00:01:25;4.70;99.90
26745;DHT22;14342;50.960;13.880;2024-02-14T00:02:25;4.70;99.90
26745;DHT22;14342;50.960;13.880;2024-02-14T00:03:27;4.70;99.90
26745;DHT22;14342;50.960;13.880;2024-02-14T00:04:29;4.60;99.90
26745;DHT22;14342;50.960;13.880;2024-02-14T00:05:29;4.60;99.90
26745;DHT22;14342;50.960;13.880;2024-02-14T00:06:34;4.50;99.90
26745;DHT22;14342;50.960;13.880;2024-02-14T00:07:35;4.80;99.90
26745;DHT22;14342;50.960;13.880;2024-02-14T00:08:35;4.70;99.90
26745;DHT22;14342;50.960;13.880;2024-02-14T00:09:38;4.70;99.90
26745;DHT22;14342;50.960;13.880;2024-02-14T00:10:39;4.70;99.90
26745;DHT22;14342;50.960;13.880;2024-02-14T00:11:40;4.80;99.90
26745;DHT22;14342;50.960;13.880;2024-02-14T00:12:41;4.80;99.90
26745;DHT22;14342;50.960;13.880;2024-02-14T00:13:42;4.80;99.90
26745;DHT22;14342;50.960;13.880;2024-02-14T00:14:43;4.90;99.90
26745;DHT22;14342;50.960;13.880;2024-02-14T00:15:44;4.90;99.90
26745;DHT22;14342;50.960;13.880;2024-02-14T00:16:46;4.90;99.90
26745;DHT22;14342;50.960;13.880;2024-02-14T00:17:47;4.90;99.90
26745;DHT22;14342;50.960;13.880;2024-02-14T00:18:49;4.90;99.90
26745;DHT22;14342;50.960;13.880;2024-02-14T00:19:51;4.90;99.90
26745;DHT22;14342;50.960;13.880;2024-02-14T00:20:51;4.90;99.90
26745;DHT22;14342;50.960;13.880;2024-02-14T00:21:53;5.20;99.90
26745;DHT22;14342;50.960;13.880;2024-02-14T00:22:53;4.90;99.90
26745;DHT22;14342;50.960;13.880;2024-02-14T00:23:55;5.00;99.90
26745;DHT22;14342;50.960;13.880;2024-02-14T00:24:56;5.00;99.90
26745;DHT22;14342;50.960;13.880;2024-02-14T00:25:58;5.00;99.90
26745;DHT22;14342;50.960;13.880;2024-02-14T00:26:58;5.00;99.90
26745;DHT22;14342;50.960;13.880;2024-02-14T00:28:00;5.10;99.90
26745;DHT22;14342;50.960;13.880;2024-02-14T00:29:01;5.10;99.90
26745;DHT22;14342;50.960;13.880;2024-02-14T00:30:01;5.10;99.90
26745;DHT22;14342;50.960;13.880;2024-02-14T00:31:03;5.10;99.90
26745;DHT22;14342;50.960;13.880;2024-02-14T00:32:04;5.00;99.90
26745;DHT22;14342;50.960;13.880;2024-02-14T00:33:06;5.00;99.90
26745;DHT22;14342;50.960;13.880;2024-02-14T00:34:08;5.10;99.90
26745;DHT22;14342;50.960;13.880;2024-02-14T00:35:09;5.00;99.90
26745;DHT22;14342;50.960;13.880;2024-02-14T00:36:10;5.00;99.90
26745;DHT22;14342;50.960;13.880;2024-02-14T00:37:11;5.10;99.90
26745;DHT22;14342;50.960;13.880;2024-02-14T00:38:12;5.10;99.90
26745;DHT22;14342;50.960;13.880;2024-02-14T00:39:14;5.10;99.90
26745;DHT22;14342;50.960;13.880;2024-02-14T00:40:14;5.10;99.90
26745;DHT22;14342;50.960;13.880;2024-02-14T00:41:16;5.10;99.90
26745;DHT22;14342;50.960;13.880;2024-02-14T00:42:17;5.10;99.90
26745;DHT22;14342;50.960;13.880;2024-02-14T00:43:18;5.20;99.90
26745;DHT22;14342;50.960;13.880;2024-02-14T00:44:19;5.20;99.90
26745;DHT22;14342;50.960;13.880;2024-02-14T00:45:20;5.20;99.90
26745;DHT22;14342;50.960;13.880;2024-02-14T00:46:21;5.20;99.90
26745;DHT22;14342;50.960;13.880;2024-02-14T00:47:22;5.20;99.90
26745;DHT22;14342;50.960;13.880;2024-02-14T00:48:23;5.20;99.90
26745;DHT22;14342;50.960;13.880;2024-02-14T00:49:26;5.20;99.90
26745;DHT22;14342;50.960;13.880;2024-02-14T00:50:26;5.20;99.90
26745;DHT22;14342;50.960;13.880;2024-02-14T00:51:28;5.20;99.90
26745;DHT22;14342;50.960;13.880;2024-02-14T00:52:28;5.20;99.90
26745;DHT22;14342;50.960;13.880;2024-02-14T00:53:30;5.20;99.90
26745;DHT22;14342;50.960;13.880;2024-02-14T00:54:30;5.20;99.90
26745;DHT22;14342;50.960;13.880;2024-02-14T00:55:32;5.20;99.90
26745;DHT22;14342;50.960;13.880;2024-02-14T00:56:32;5.20;99.90
26745;DHT22;14342;50.960;13.880;2024-02-14T00:57:33;5.20;99.90
26745;DHT22;14342;50.960;13.880;2024-02-14T00:58:34;5.20;99.90
26745;DHT22;14342;50.960;13.880;2024-02-14T00:59:35;5.20;99.90
26745;DHT22;14342;50.960;13.880;2024-02-14T01:00:36;5.20;99.90
26745;DHT22;14342;50.960;13.880;2024-02-14T01:01:38;5.20;99.90
26745;DHT22;14342;50.960;13.880;2024-02-14T01:02:39;5.20;99.90
26745;DHT22;14342;50.960;13.880;2024-02-14T01:03:40;5.30;99.90
26745;DHT22;14342;50.960;13.880;2024-02-14T01:04:43;5.30;99.90
26745;DHT22;14342;50.960;13.880;2024-02-14T01:05:43;5.20;99.90
26745;DHT22;14342;50.960;13.880;2024-02-14T01:06:45;5.30;99.90
26745;DHT22;14342;50.960;13.880;2024-02-14T01:07:46;5.30;99.90
26745;DHT22;14342;50.960;13.880;2024-02-14T01:08:47;5.20;99.90
26745;DHT22;14342;50.960;13.880;2024-02-14T01:09:48;5.20;99.90
26745;DHT22;14342;50.960;13.880;2024-02-14T01:10:48;5.30;99.90
26745;DHT22;14342;50.960;13.880;2024-02-14T01:11:50;5.30;99.90
26745;DHT22;14342;50.960;13.880;2024-02-14T01:12:51;5.30;99.90
26745;DHT22;14342;50.960;13.880;2024-02-14T01:13:52;5.30;99.90
26745;DHT22;14342;50.960;13.880;2024-02-14T01:14:53;5.20;99.90
26745;DHT22;14342;50.960;13.880;2024-02-14T01:15:53;5.20;99.90
26745;DHT22;14342;50.960;13.880;2024-02-14T01:16:55;5.20;99.90
26745;DHT22;14342;50.960;13.880;2024-02-14T01:17:56;5.10;99.90
26745;DHT22;14342;50.960;13.880;2024-02-14T01:18:58;5.10;99.90
26745;DHT22;14342;50.960;13.880;2024-02-14T01:20:00;5.10;99.90
26745;DHT22;14342;50.960;13.880;2024-02-14T01:21:01;5.10;99.90
26745;DHT22;14342;50.960;13.880;2024-02-14T01:22:02;5.10;99.90
26745;DHT22;14342;50.960;13.880;2024-02-14T01:23:04;5.30;99.90
26745;DHT22;14342;50.960;13.880;2024-02-14T01:24:05;5.10;99.90
26745;DHT22;14342;50.960;13.880;2024-02-14T01:25:08;5.10;99.90
26745;DHT22;14342;50.960;13.880;2024-02-14T01:26:10;5.10;99.90
26745;DHT22;14342;50.960;13.880;2024-02-14T01:27:12;5.00;99.90
26745;DHT22;14342;50.960;13.880;2024-02-14T01:28:13;5.00;99.90
26745;DHT22;14342;50.960;13.880;2024-02-14T01:29:14;4.90;99.90
26745;DHT22;14342;50.960;13.880;2024-02-14T01:30:16;4.90;99.90
26745;DHT22;14342;50.960;13.880;2024-02-14T01:31:18;4.90;99.90
26745;DHT22;14342;50.960;13.880;2024-02-14T01:32:20;4.90;99.90
26745;DHT22;14342;50.960;13.880;2024-02-14T01:33:21;4.80;99.90
26745;DHT22;14342;50.960;13.880;2024-02-14T01:34:22;4.80;99.90
26745;DHT22;14342;50.960;13.880;2024-02-14T01:35:25;4.80;99.90
26745;DHT22;14342;50.960;13.880;2024-02-14T01:36:26;4.80;99.90
26745;DHT22;14342;50.960;13.880;2024-02-14T01:37:28;4.80;99.90
26745;DHT22;14342;50.960;13.880;2024-02-14T01:38:29;4.80;99.90
26745;DHT22;14342;50.960;13.880;2024-02-14T01:39:35;4.70;99.90
26745;DHT22;14342;50.960;13.880;2024-02-14T01:40:36;4.80;99.90
26745;DHT22;14342;50.960;13.880;2024-02-14T01:41:37;4.80;99.90
26745;DHT22;14342;50.960;13.880;2024-02-14T01:42:38;4.80;99.90
26745;DHT22;14342;50.960;13.880;2024-02-14T01:43:39;4.80;99.90
26745;DHT22;14342;50.960;13.880;2024-02-14T01:44:40;4.80;99.90
26745;DHT22;14342;50.960;13.880;2024-02-14T01:45:43;4.80;99.90
26745;DHT22;14342;50.960;13.880;2024-02-14T01:46:44;4.80;99.90
26745;DHT22;14342;50.960;13.880;2024-02-14T01:47:45;4.80;99.90
26745;DHT22;14342;50.960;13.880;2024-02-14T01:48:46;4.80;99.90
26745;DHT22;14342;50.960;13.880;2024-02-14T01:49:47;4.80;99.90
26745;DHT22;14342;50.960;13.880;2024-02-14T01:50:50;4.70;99.90
26745;DHT22;14342;50.960;13.880;2024-02-14T01:51:51;4.70;99.90
26745;DHT22;14342;50.960;13.880;2024-02-14T01:52:52;4.70;99.90
26745;DHT22;14342;50.960;13.880;2024-02-14T01:53:53;4.70;99.90
26745;DHT22;14342;50.960;13.880;2024-02-14T01:54:55;4.70;99.90
26745;DHT22;14342;50.960;13.880;2024-02-14T01:55:56;4.70;99.90
26745;DHT22;14342;50.960;13.880;2024-02-14T01:56:58;4.70;99.90
26745;DHT22;14342;50.960;13.880;2024-02-14T01:57:59;4.80;99.90
26745;DHT22;14342;50.960;13.880;2024-02-14T01:59:00;4.80;99.90
26745;DHT22;14342;50.960;13.880;2024-02-14T02:00:02;4.90;99.90
26745;DHT22;14342;50.960;13.880;2024-02-14T02:01:08;4.90;99.90
26745;DHT22;14342;50.960;13.880;2024-02-14T02:02:10;4.90;99.90
26745;DHT22;14342;50.960;13.880;2024-02-14T02:03:12;4.90;99.90
26745;DHT22;14342;50.960;13.880;2024-02-14T02:04:13;4.90;99.90
26745;DHT22;14342;50.960;13.880;2024-02-14T02:05:14;4.90;99.90
26745;DHT22;14342;50.960;13.880;2024-02-14T02:06:17;4.90;99.90
26745;DHT22;14342;50.960;13.880;2024-02-14T02:07:19;4.90;99.90
26745;DHT22;14342;50.960;13.880;2024-02-14T02:08:20;4.90;99.90
26745;DHT22;14342;50.960;13.880;2024-02-14T02:09:22;4.90;99.90
26745;DHT22;14342;50.960;13.880;2024-02-14T02:10:23;4.90;99.90
26745;DHT22;14342;50.960;13.880;2024-02-14T02:11:26;4.90;99.90
26745;DHT22;14342;50.960;13.880;2024-02-14T02:13:45;4.80;99.90
26745;DHT22;14342;50.960;13.880;2024-02-14T02:14:46;4.80;99.90
26745;DHT22;14342;50.960;13.880;2024-02-14T02:15:47;4.70;99.90
26745;DHT22;14342;50.960;13.880;2024-02-14T02:16:47;4.70;99.90
26745;DHT22;14342;50.960;13.880;2024-02-14T02:17:49;4.70;99.90
26745;DHT22;14342;50.960;13.880;2024-02-14T02:18:52;4.70;99.90
26745;DHT22;14342;50.960;13.880;2024-02-14T02:19:54;4.70;99.90
26745;DHT22;14342;50.960;13.880;2024-02-14T02:20:55;4.70;99.90
26745;DHT22;14342;50.960;13.880;2024-02-14T02:21:56;4.60;99.90
26745;DHT22;14342;50.960;13.880;2024-02-14T02:22:58;4.60;99.90
26745;DHT22;14342;50.960;13.880;2024-02-14T02:23:59;4.60;99.90
26745;DHT22;14342;50.960;13.880;2024-02-14T02:25:01;4.50;99.90
26745;DHT22;14342;50.960;13.880;2024-02-14T02:26:01;4.40;99.90
26745;DHT22;14342;50.960;13.880;2024-02-14T02:27:03;4.10;99.90
26745;DHT22;14342;50.960;13.880;2024-02-14T02:28:04;4.30;99.90
26745;DHT22;14342;50.960;13.880;2024-02-14T02:29:05;4.20;99.90
26745;DHT22;14342;50.960;13.880;2024-02-14T02:30:07;4.20;99.90
26745;DHT22;14342;50.960;13.880;2024-02-14T02:31:08;4.30;99.90
26745;DHT22;14342;50.960;13.880;2024-02-14T02:32:09;4.30;99.90
26745;DHT22;14342;50.960;13.880;2024-02-14T02:33:11;4.30;99.90
26745;DHT22;14342;50.960;13.880;2024-02-14T02:34:12;4.40;99.90
26745;DHT22;14342;50.960;13.880;2024-02-14T02:35:14;4.40;99.90
26745;DHT22;14342;50.960;13.880;2024-02-14T02:36:14;4.40;99.90
26745;DHT22;14342;50.960;13.880;2024-02-14T02:37:16;4.40;99.90
26745;DHT22;14342;50.960;13.880;2024-02-14T02:38:19;4.40;99.90
26745;DHT22;14342;50.960;13.880;2024-02-14T02:39:22;4.40;99.90
26745;DHT22;14342;50.960;13.880;2024-02-14T02:40:22;4.40;99.90
26745;DHT22;14342;50.960;13.880;2024-02-14T02:41:24;4.40;99.90
26745;DHT22;14342;50.960;13.880;2024-02-14T02:42:24;4.40;99.90
26745;DHT22;14342;50.960;13.880;2024-02-14T02:43:26;4.40;99.90
26745;DHT22;14342;50.960;13.880;2024-02-14T02:44:26;4.40;99.90
26745;DHT22;14342;50.960;13.880;2024-02-14T02:45:27;4.40;99.90
26745;DHT22;14342;50.960;13.880;2024-02-14T02:46:29;4.40;99.90
26745;DHT22;14342;50.960;13.880;2024-02-14T02:47:30;4.40;99.90
26745;DHT22;14342;50.960;13.880;2024-02-14T02:48:31;4.40;99.90
26745;DHT22;14342;50.960;13.880;2024-02-14T02:49:32;4.40;99.90
26745;DHT22;14342;50.960;13.880;2024-02-14T02:50:33;4.30;99.90
26745;DHT22;14342;50.960;13.880;2024-02-14T02:51:34;4.40;99.90
26745;DHT22;14342;50.960;13.880;2024-02-14T02:52:35;4.30;99.90
26745;DHT22;14342;50.960;13.880;2024-02-14T02:53:37;4.40;99.90
26745;DHT22;14342;50.960;13.880;2024-02-14T02:54:39;4.40;99.90
26745;DHT22;14342;50.960;13.880;2024-02-14T02:55:41;4.40;99.90
26745;DHT22;14342;50.960;13.880;2024-02-14T02:56:43;4.30;99.90
26745;DHT22;14342;50.960;13.880;2024-02-14T02:57:43;4.30;99.90
26745;DHT22;14342;50.960;13.880;2024-02-14T02:58:45;4.40;99.90
26745;DHT22;14342;50.960;13.880;2024-02-14T02:59:48;4.30;99.90
26745;DHT22;14342;50.960;13.880;2024-02-14T03:00:49;4.20;99.90
26745;DHT22;14342;50.960;13.880;2024-02-14T03:01:50;4.10;99.90
26745;DHT22;14342;50.960;13.880;2024-02-14T03:02:51;4.10;99.90
26745;DHT22;14342;50.960;13.880;2024-02-14T03:03:52;4.10;99.90
26745;DHT22;14342;50.960;13.880;2024-02-14T03:04:53;4.00;99.90
26745;DHT22;14342;50.960;13.880;2024-02-14T03:05:54;4.10;99.90
26745;DHT22;14342;50.960;13.880;2024-02-14T03:06:55;4.10;99.90
26745;DHT22;14342;50.960;13.880;2024-02-14T03:07:57;4.10;99.90
26745;DHT22;14342;50.960;13.880;2024-02-14T03:09:00;4.10;99.90
26745;DHT22;14342;50.960;13.880;2024-02-14T03:10:01;4.10;99.90
26745;DHT22;14342;50.960;13.880;2024-02-14T03:11:04;4.20;99.90
26745;DHT22;14342;50.960;13.880;2024-02-14T03:12:06;4.10;99.90
26745;DHT22;14342;50.960;13.880;2024-02-14T03:13:07;4.00;99.90
26745;DHT22;14342;50.960;13.880;2024-02-14T03:14:12;3.90;99.90
26745;DHT22;14342;50.960;13.880;2024-02-14T03:15:12;3.80;99.90
26745;DHT22;14342;50.960;13.880;2024-02-14T03:16:13;3.70;99.90
26745;DHT22;14342;50.960;13.880;2024-02-14T03:17:15;3.60;99.90
26745;DHT22;14342;50.960;13.880;2024-02-14T03:18:15;3.50;99.90
26745;DHT22;14342;50.960;13.880;2024-02-14T03:19:17;3.40;99.90
26745;DHT22;14342;50.960;13.880;2024-02-14T03:20:17;3.30;99.90
26745;DHT22;14342;50.960;13.880;2024-02-14T03:21:19;3.30;99.90
26745;DHT22;14342;50.960;13.880;2024-02-14T03:22:20;3.30;99.90
26745;DHT22;14342;50.960;13.880;2024-02-14T03:23:22;3.30;99.90
26745;DHT22;14342;50.960;13.880;2024-02-14T03:24:24;3.40;99.90
26745;DHT22;14342;50.960;13.880;2024-02-14T03:25:25;3.40;99.90
26745;DHT22;14342;50.960;13.880;2024-02-14T03:26:27;3.40;99.90
26745;DHT22;14342;50.960;13.880;2024-02-14T03:27:28;3.50;99.90
26745;DHT22;14342;50.960;13.880;2024-02-14T03:28:28;3.50;99.90
26745;DHT22;14342;50.960;13.880;2024-02-14T03:29:30;3.40;99.90
26745;DHT22;14342;50.960;13.880;2024-02-14T03:30:30;3.50;99.90
26745;DHT22;14342;50.960;13.880;2024-02-14T03:31:34;3.50;99.90
26745;DHT22;14342;50.960;13.880;2024-02-14T03:32:34;3.60;99.90
26745;DHT22;14342;50.960;13.880;2024-02-14T03:33:35;3.70;99.90
26745;DHT22;14342;50.960;13.880;2024-02-14T03:34:36;3.80;99.90
26745;DHT22;14342;50.960;13.880;2024-02-14T03:35:37;3.90;99.90
26745;DHT22;14342;50.960;13.880;2024-02-14T03:36:38;4.20;99.90
26745;DHT22;14342;50.960;13.880;2024-02-14T03:37:40;4.00;99.90
26745;DHT22;14342;50.960;13.880;2024-02-14T03:38:41;4.10;99.90
26745;DHT22;14342;50.960;13.880;2024-02-14T03:39:43;4.20;99.90
26745;DHT22;14342;50.960;13.880;2024-02-14T03:40:46;4.20;99.90
26745;DHT22;14342;50.960;13.880;2024-02-14T03:41:47;4.10;99.90
26745;DHT22;14342;50.960;13.880;2024-02-14T03:42:48;4.10;99.90
26745;DHT22;14342;50.960;13.880;2024-02-14T03:43:49;4.20;99.90
26745;DHT22;14342;50.960;13.880;2024-02-14T03:44:50;4.20;99.90
26745;DHT22;14342;50.960;13.880;2024-02-14T03:45:52;4.20;99.90
26745;DHT22;14342;50.960;13.880;2024-02-14T03:46:52;4.30;99.90
26745;DHT22;14342;50.960;13.880;2024-02-14T03:47:54;4.30;99.90
26745;DHT22;14342;50.960;13.880;2024-02-14T03:48:54;4.20;99.90
26745;DHT22;14342;50.960;13.880;2024-02-14T03:49:56;4.20;99.90
26745;DHT22;14342;50.960;13.880;2024-02-14T03:50:56;4.10;99.90
26745;DHT22;14342;50.960;13.880;2024-02-14T03:51:58;4.10;99.90
26745;DHT22;14342;50.960;13.880;2024-02-14T03:52:59;4.10;99.90
26745;DHT22;14342;50.960;13.880;2024-02-14T03:54:02;4.30;99.90
26745;DHT22;14342;50.960;13.880;2024-02-14T03:55:04;4.10;99.90
26745;DHT22;14342;50.960;13.880;2024-02-14T03:56:06;4.10;99.90
26745;DHT22;14342;50.960;13.880;2024-02-14T03:57:07;4.10;99.90
26745;DHT22;14342;50.960;13.880;2024-02-14T03:58:08;4.20;99.90
26745;DHT22;14342;50.960;13.880;2024-02-14T03:59:10;4.20;99.90
26745;DHT22;14342;50.960;13.880;2024-02-14T04:00:11;4.20;99.90
26745;DHT22;14342;50.960;13.880;2024-02-14T04:01:12;4.20;99.90
26745;DHT22;14342;50.960;13.880;2024-02-14T04:02:13;4.10;99.90
26745;DHT22;14342;50.960;13.880;2024-02-14T04:03:14;4.00;99.90
26745;DHT22;14342;50.960;13.880;2024-02-14T04:04:15;3.90;99.90
26745;DHT22;14342;50.960;13.880;2024-02-14T04:05:16;3.90;99.90
26745;DHT22;14342;50.960;13.880;2024-02-14T04:06:18;3.80;99.90
26745;DHT22;14342;50.960;13.880;2024-02-14T04:07:18;3.80;99.90
26745;DHT22;14342;50.960;13.880;2024-02-14T04:08:19;3.80;99.90
26745;DHT22;14342;50.960;13.880;2024-02-14T04:09:20;3.80;99.90
26745;DHT22;14342;50.960;13.880;2024-02-14T04:10:22;3.80;99.90
26745;DHT22;14342;50.960;13.880;2024-02-14T04:11:24;3.80;99.90
26745;DHT22;14342;50.960;13.880;2024-02-14T04:12:24;3.80;99.90
26745;DHT22;14342;50.960;13.880;2024-02-14T04:13:26;3.90;99.90
26745;DHT22;14342;50.960;13.880;2024-02-14T04:14:26;3.90;99.90
26745;DHT22;14342;50.960;13.880;2024-02-14T04:15:28;4.00;99.90
26745;DHT22;14342;50.960;13.880;2024-02-14T04:16:28;4.00;99.90
26745;DHT22;14342;50.960;13.880;2024-02-14T04:17:30;4.10;99.90
26745;DHT22;14342;50.960;13.880;2024-02-14T04:18:30;4.20;99.90
26745;DHT22;14342;50.960;13.880;2024-02-14T04:19:33;4.20;99.90
26745;DHT22;14342;50.960;13.880;2024-02-14T04:20:33;4.20;99.90
26745;DHT22;14342;50.960;13.880;2024-02-14T04:21:35;4.20;99.90
26745;DHT22;14342;50.960;13.880;2024-02-14T04:22:35;4.20;99.90
26745;DHT22;14342;50.960;13.880;2024-02-14T04:23:37;4.20;99.90
26745;DHT22;14342;50.960;13.880;2024-02-14T04:24:37;4.20;99.90
26745;DHT22;14342;50.960;13.880;2024-02-14T04:25:40;4.20;99.90
26745;DHT22;14342;50.960;13.880;2024-02-14T04:26:42;4.20;99.90
26745;DHT22;14342;50.960;13.880;2024-02-14T04:27:42;4.30;99.90
26745;DHT22;14342;50.960;13.880;2024-02-14T04:28:44;4.30;99.90
26745;DHT22;14342;50.960;13.880;2024-02-14T04:29:45;4.30;99.90
26745;DHT22;14342;50.960;13.880;2024-02-14T04:30:46;4.20;99.90
26745;DHT22;14342;50.960;13.880;2024-02-14T04:31:48;4.20;99.90
26745;DHT22;14342;50.960;13.880;2024-02-14T04:32:50;4.30;99.90
26745;DHT22;14342;50.960;13.880;2024-02-14T04:33:52;4.20;99.90
26745;DHT22;14342;50.960;13.880;2024-02-14T04:34:54;4.10;99.90
26745;DHT22;14342;50.960;13.880;2024-02-14T04:35:55;4.00;99.90
26745;DHT22;14342;50.960;13.880;2024-02-14T04:36:56;3.90;99.90
26745;DHT22;14342;50.960;13.880;2024-02-14T04:37:58;3.90;99.90
26745;DHT22;14342;50.960;13.880;2024-02-14T04:38:58;3.90;99.90
26745;DHT22;14342;50.960;13.880;2024-02-14T04:40:00;3.80;99.90
26745;DHT22;14342;50.960;13.880;2024-02-14T04:41:02;3.90;99.90
26745;DHT22;14342;50.960;13.880;2024-02-14T04:42:03;3.80;99.90
26745;DHT22;14342;50.960;13.880;2024-02-14T04:43:05;3.90;99.90
26745;DHT22;14342;50.960;13.880;2024-02-14T04:44:05;4.20;99.90
26745;DHT22;14342;50.960;13.880;2024-02-14T04:45:07;4.10;99.90
26745;DHT22;14342;50.960;13.880;2024-02-14T04:46:08;4.10;99.90
26745;DHT22;14342;50.960;13.880;2024-02-14T04:47:10;4.20;99.90
26745;DHT22;14342;50.960;13.880;2024-02-14T04:48:10;4.10;99.90
26745;DHT22;14342;50.960;13.880;2024-02-14T04:49:12;4.20;99.90
26745;DHT22;14342;50.960;13.880;2024-02-14T04:50:15;4.30;99.90
26745;DHT22;14342;50.960;13.880;2024-02-14T04:51:16;4.30;99.90
26745;DHT22;14342;50.960;13.880;2024-02-14T04:52:17;4.40;99.90
26745;DHT22;14342;50.960;13.880;2024-02-14T04:53:18;4.40;99.90
26745;DHT22;14342;50.960;13.880;2024-02-14T04:54:19;4.40;99.90
26745;DHT22;14342;50.960;13.880;2024-02-14T04:55:21;4.40;99.90
26745;DHT22;14342;50.960;13.880;2024-02-14T04:56:23;4.40;99.90
26745;DHT22;14342;50.960;13.880;2024-02-14T04:57:24;4.40;99.90
26745;DHT22;14342;50.960;13.880;2024-02-14T04:58:25;4.30;99.90
26745;DHT22;14342;50.960;13.880;2024-02-14T04:59:27;4.30;99.90
26745;DHT22;14342;50.960;13.880;2024-02-14T05:00:28;4.40;99.90
26745;DHT22;14342;50.960;13.880;2024-02-14T05:01:28;4.40;99.90
26745;DHT22;14342;50.960;13.880;2024-02-14T05:02:30;4.50;99.90
26745;DHT22;14342;50.960;13.880;2024-02-14T05:03:31;4.50;99.90
26745;DHT22;14342;50.960;13.880;2024-02-14T05:04:32;4.50;99.90
26745;DHT22;14342;50.960;13.880;2024-02-14T05:05:35;4.50;99.90
26745;DHT22;14342;50.960;13.880;2024-02-14T05:06:37;4.70;99.90
26745;DHT22;14342;50.960;13.880;2024-02-14T05:07:38;4.50;99.90
26745;DHT22;14342;50.960;13.880;2024-02-14T05:08:40;4.50;99.90
26745;DHT22;14342;50.960;13.880;2024-02-14T05:09:40;4.40;99.90
26745;DHT22;14342;50.960;13.880;2024-02-14T05:10:42;4.30;99.90
26745;DHT22;14342;50.960;13.880;2024-02-14T05:11:44;4.30;99.90
26745;DHT22;14342;50.960;13.880;2024-02-14T05:12:46;4.20;99.90
26745;DHT22;14342;50.960;13.880;2024-02-14T05:13:46;4.10;99.90
26745;DHT22;14342;50.960;13.880;2024-02-14T05:14:49;4.00;99.90
26745;DHT22;14342;50.960;13.880;2024-02-14T05:15:49;3.90;99.90
26745;DHT22;14342;50.960;13.880;2024-02-14T05:16:51;3.90;99.90
26745;DHT22;14342;50.960;13.880;2024-02-14T05:17:53;3.90;99.90
26745;DHT22;14342;50.960;13.880;2024-02-14T05:18:53;3.90;99.90
26745;DHT22;14342;50.960;13.880;2024-02-14T05:19:55;3.80;99.90
26745;DHT22;14342;50.960;13.880;2024-02-14T05:20:55;3.80;99.90
26745;DHT22;14342;50.960;13.880;2024-02-14T05:21:58;3.90;99.90
26745;DHT22;14342;50.960;13.880;2024-02-14T05:22:59;4.00;99.90
26745;DHT22;14342;50.960;13.880;2024-02-14T05:24:01;4.00;99.90
26745;DHT22;14342;50.960;13.880;2024-02-14T05:25:01;4.10;99.90
26745;DHT22;14342;50.960;13.880;2024-02-14T05:26:02;4.20;99.90
26745;DHT22;14342;50.960;13.880;2024-02-14T05:27:05;4.30;99.90
26745;DHT22;14342;50.960;13.880;2024-02-14T05:28:06;4.30;99.90
26745;DHT22;14342;50.960;13.880;2024-02-14T05:29:07;4.30;99.90
26745;DHT22;14342;50.960;13.880;2024-02-14T05:30:08;4.40;99.90
26745;DHT22;14342;50.960;13.880;2024-02-14T05:31:09;4.40;99.90
26745;DHT22;14342;50.960;13.880;2024-02-14T05:32:10;4.40;99.90
26745;DHT22;14342;50.960;13.880;2024-02-14T05:33:11;4.50;99.90
26745;DHT22;14342;50.960;13.880;2024-02-14T05:34:12;4.50;99.90
26745;DHT22;14342;50.960;13.880;2024-02-14T05:35:14;4.50;99.90
26745;DHT22;14342;50.960;13.880;2024-02-14T05:36:14;4.40;99.90
26745;DHT22;14342;50.960;13.880;2024-02-14T05:37:16;4.40;99.90
26745;DHT22;14342;50.960;13.880;2024-02-14T05:38:16;4.40;99.90
26745;DHT22;14342;50.960;13.880;2024-02-14T05:39:19;4.50;99.90
26745;DHT22;14342;50.960;13.880;2024-02-14T05:40:20;4.50;99.90
26745;DHT22;14342;50.960;13.880;2024-02-14T05:41:21;4.50;99.90
26745;DHT22;14342;50.960;13.880;2024-02-14T05:42:25;4.50;99.90
26745;DHT22;14342;50.960;13.880;2024-02-14T05:43:26;4.60;99.90
26745;DHT22;14342;50.960;13.880;2024-02-14T05:44:27;4.60;99.90
26745;DHT22;14342;50.960;13.880;2024-02-14T05:45:30;4.60;99.90
26745;DHT22;14342;50.960;13.880;2024-02-14T05:46:31;4.50;99.90
26745;DHT22;14342;50.960;13.880;2024-02-14T05:47:32;4.60;99.90
26745;DHT22;14342;50.960;13.880;2024-02-14T05:48:33;4.60;99.90
26745;DHT22;14342;50.960;13.880;2024-02-14T05:49:35;4.60;99.90
26745;DHT22;14342;50.960;13.880;2024-02-14T05:50:35;4.60;99.90
26745;DHT22;14342;50.960;13.880;2024-02-14T05:51:37;4.60;99.90
26745;DHT22;14342;50.960;13.880;2024-02-14T05:52:38;4.60;99.90
26745;DHT22;14342;50.960;13.880;2024-02-14T05:53:39;4.60;99.90
26745;DHT22;14342;50.960;13.880;2024-02-14T05:54:40;4.70;99.90
26745;DHT22;14342;50.960;13.880;2024-02-14T05:55:41;4.70;99.90
26745;DHT22;14342;50.960;13.880;2024-02-14T05:56:42;4.60;99.90
26745;DHT22;14342;50.960;13.880;2024-02-14T05:57:45;4.70;99.90
26745;DHT22;14342;50.960;13.880;2024-02-14T05:58:45;4.70;99.90
26745;DHT22;14342;50.960;13.880;2024-02-14T05:59:47;4.80;99.90
26745;DHT22;14342;50.960;13.880;2024-02-14T06:00:47;4.80;99.90
26745;DHT22;14342;50.960;13.880;2024-02-14T06:01:49;4.70;99.90
26745;DHT22;14342;50.960;13.880;2024-02-14T06:02:49;4.80;99.90
26745;DHT22;14342;50.960;13.880;2024-02-14T06:03:50;4.80;99.90
26745;DHT22;14342;50.960;13.880;2024-02-14T06:04:51;4.80;99.90
26745;DHT22;14342;50.960;13.880;2024-02-14T06:05:52;4.80;99.90
26745;DHT22;14342;50.960;13.880;2024-02-14T06:06:53;4.80;99.90
26745;DHT22;14342;50.960;13.880;2024-02-14T06:07:54;4.80;99.90
26745;DHT22;14342;50.960;13.880;2024-02-14T06:08:56;4.70;99.90
26745;DHT22;14342;50.960;13.880;2024-02-14T06:09:57;4.70;99.90
26745;DHT22;14342;50.960;13.880;2024-02-14T06:10:59;4.70;99.90
26745;DHT22;14342;50.960;13.880;2024-02-14T06:12:00;4.60;99.90
26745;DHT22;14342;50.960;13.880;2024-02-14T06:13:03;4.60;99.90
26745;DHT22;14342;50.960;13.880;2024-02-14T06:14:03;4.60;99.90
26745;DHT22;14342;50.960;13.880;2024-02-14T06:15:05;4.50;99.90
26745;DHT22;14342;50.960;13.880;2024-02-14T06:16:06;4.60;99.90
26745;DHT22;14342;50.960;13.880;2024-02-14T06:17:08;4.60;99.90
26745;DHT22;14342;50.960;13.880;2024-02-14T06:18:09;4.60;99.90
26745;DHT22;14342;50.960;13.880;2024-02-14T06:19:10;4.60;99.90
26745;DHT22;14342;50.960;13.880;2024-02-14T06:20:11;4.60;99.90
26745;DHT22;14342;50.960;13.880;2024-02-14T06:21:13;4.90;99.90
26745;DHT22;14342;50.960;13.880;2024-02-14T06:22:14;4.70;99.90
26745;DHT22;14342;50.960;13.880;2024-02-14T06:23:15;4.80;99.90
26745;DHT22;14342;50.960;13.880;2024-02-14T06:24:16;4.80;99.90
26745;DHT22;14342;50.960;13.880;2024-02-14T06:25:19;4.80;99.90
26745;DHT22;14342;50.960;13.880;2024-02-14T06:26:19;4.80;99.90
26745;DHT22;14342;50.960;13.880;2024-02-14T06:27:21;4.90;99.90
26745;DHT22;14342;50.960;13.880;2024-02-14T06:28:23;4.90;99.90